createdAt,value
2018-11-04T00:02:06.066Z,24.40
2018-11-04T00:04:34.304Z,23.90
2018-11-04T00:07:03.803Z,25.37
2018-11-04T00:09:32.042Z,25.30
2018-11-04T00:12:00.564Z,25.70
2018-11-04T00:14:28.677Z,23.07
2018-11-04T00:16:56.968Z,23.83
2018-11-04T00:19:24.990Z,21.43
2018-11-04T00:21:53.089Z,21.83
2018-11-04T00:24:21.154Z,23.30
2018-11-04T00:26:49.279Z,24.43
2018-11-04T00:29:17.346Z,23.30
2018-11-04T00:31:45.507Z,23.77
2018-11-04T00:34:13.654Z,25.10
2018-11-04T00:36:42.261Z,22.97
2018-11-04T00:39:10.393Z,21.90
2018-11-04T00:41:38.525Z,24.23
2018-11-04T00:44:06.635Z,26.90
2018-11-04T00:46:34.828Z,30.33
2018-11-04T00:49:03.035Z,29.13
2018-11-04T00:51:31.249Z,24.80
2018-11-04T00:53:59.265Z,26.67
2018-11-04T00:56:27.420Z,27.53
2018-11-04T00:58:56.053Z,25.07
2018-11-04T01:01:24.194Z,24.87
2018-11-04T01:03:52.376Z,25.30
2018-11-04T01:06:20.455Z,24.60
2018-11-04T01:08:48.653Z,25.43
2018-11-04T01:11:16.761Z,23.67
2018-11-04T01:13:44.890Z,24.77
2018-11-04T01:16:13.053Z,23.37
2018-11-04T01:18:41.348Z,25.27
2018-11-04T01:21:09.493Z,25.83
2018-11-04T01:23:38.163Z,25.97
2018-11-04T01:26:06.350Z,27.13
2018-11-04T01:28:34.628Z,25.73
2018-11-04T01:31:02.712Z,24.63
2018-11-04T01:33:31.001Z,26.03
2018-11-04T01:35:59.047Z,25.00
2018-11-04T01:38:27.656Z,25.27
2018-11-04T01:40:55.820Z,23.90
2018-11-04T01:43:23.978Z,25.73
2018-11-04T01:45:51.990Z,26.37
2018-11-04T01:48:20.120Z,27.13
2018-11-04T01:50:48.173Z,24.30
2018-11-04T01:53:16.210Z,23.70
2018-11-04T01:55:44.253Z,24.63
2018-11-04T01:58:12.361Z,24.83
2018-11-04T02:00:40.465Z,24.63
2018-11-04T02:03:08.723Z,24.23
2018-11-04T02:05:36.828Z,24.40
2018-11-04T02:08:05.445Z,25.80
2018-11-04T02:10:33.560Z,25.10
2018-11-04T02:13:01.634Z,24.73
2018-11-04T02:15:29.660Z,24.70
2018-11-04T02:17:57.756Z,25.07
2018-11-04T02:20:25.821Z,26.30
2018-11-04T02:22:53.915Z,24.73
2018-11-04T02:25:22.014Z,23.93
2018-11-04T02:27:51.166Z,24.20
2018-11-04T02:30:19.277Z,21.47
2018-11-04T02:32:48.376Z,22.57
2018-11-04T02:35:16.505Z,24.33
2018-11-04T02:37:44.723Z,23.23
2018-11-04T02:40:13.363Z,23.93
2018-11-04T02:42:41.428Z,24.20
2018-11-04T02:45:09.949Z,22.73
2018-11-04T02:47:38.193Z,23.30
2018-11-04T02:50:07.071Z,24.07
2018-11-04T02:52:35.300Z,24.80
2018-11-04T02:55:03.483Z,25.37
2018-11-04T02:57:31.569Z,24.13
2018-11-04T02:59:59.698Z,25.03
2018-11-04T03:02:27.765Z,24.23
2018-11-04T03:04:55.871Z,27.00
2018-11-04T03:07:23.908Z,26.53
2018-11-04T03:09:52.024Z,25.53
2018-11-04T03:12:20.064Z,24.57
2018-11-04T03:14:48.121Z,24.73
2018-11-04T03:17:16.164Z,25.30
2018-11-04T03:19:44.217Z,25.57
2018-11-04T03:22:12.190Z,21.90
2018-11-04T03:24:40.318Z,24.47
2018-11-04T03:27:08.369Z,23.40
2018-11-04T03:29:36.410Z,24.57
2018-11-04T03:32:04.520Z,25.53
2018-11-04T03:34:32.647Z,25.47
2018-11-04T03:37:00.931Z,24.20
2018-11-04T03:39:28.942Z,25.70
2018-11-04T03:41:56.990Z,27.30
2018-11-04T03:44:25.084Z,27.93
2018-11-04T03:46:53.155Z,26.87
2018-11-04T03:49:21.221Z,25.53
2018-11-04T03:51:49.214Z,25.87
2018-11-04T03:54:17.272Z,24.43
2018-11-04T03:56:45.305Z,27.47
2018-11-04T03:59:13.396Z,24.43
2018-11-04T04:01:41.439Z,26.03
2018-11-04T04:04:09.858Z,25.83
2018-11-04T04:06:37.864Z,25.37
2018-11-04T04:09:07.746Z,23.93
2018-11-04T04:11:35.816Z,25.37
2018-11-04T04:14:03.936Z,25.33
2018-11-04T04:16:31.928Z,25.23
2018-11-04T04:19:00.029Z,24.83
2018-11-04T04:21:28.039Z,23.87
2018-11-04T04:23:56.089Z,23.20
2018-11-04T04:26:24.257Z,24.50
2018-11-04T04:28:52.745Z,25.03
2018-11-04T04:31:20.788Z,23.37
2018-11-04T04:33:48.829Z,22.53
2018-11-04T04:36:16.903Z,24.80
2018-11-04T04:38:45.078Z,24.37
2018-11-04T04:41:13.203Z,23.43
2018-11-04T04:43:41.215Z,23.20
2018-11-04T04:46:09.232Z,22.40
2018-11-04T04:48:37.182Z,24.83
2018-11-04T04:51:11.976Z,23.17
2018-11-04T04:53:39.986Z,24.53
2018-11-04T04:56:08.128Z,22.30
2018-11-04T04:58:36.150Z,23.53
2018-11-04T05:01:04.242Z,23.47
2018-11-04T05:03:32.265Z,24.33
2018-11-04T05:06:00.373Z,22.53
2018-11-04T05:08:28.397Z,24.07
2018-11-04T05:10:56.422Z,23.47
2018-11-04T05:13:24.388Z,25.80
2018-11-04T05:15:52.468Z,23.13
2018-11-04T05:18:20.498Z,23.50
2018-11-04T05:20:48.588Z,24.73
2018-11-04T05:23:16.593Z,23.40
2018-11-04T05:25:44.668Z,22.73
2018-11-04T05:28:12.675Z,21.93
2018-11-04T05:30:40.763Z,23.13
2018-11-04T05:33:08.773Z,22.67
2018-11-04T05:35:36.867Z,22.40
2018-11-04T05:38:05.012Z,22.10
2018-11-04T05:40:33.139Z,22.57
2018-11-04T05:43:01.139Z,23.73
2018-11-04T05:45:29.196Z,22.97
2018-11-04T05:47:57.204Z,22.77
2018-11-04T05:50:25.269Z,22.67
2018-11-04T05:52:53.289Z,22.70
2018-11-04T05:55:21.430Z,23.37
2018-11-04T05:57:49.531Z,22.90
2018-11-04T06:00:17.630Z,23.47
2018-11-04T06:02:45.685Z,24.63
2018-11-04T06:05:13.745Z,22.87
2018-11-04T06:07:41.761Z,23.33
2018-11-04T06:10:09.780Z,20.20
2018-11-04T06:12:37.976Z,22.43
2018-11-04T06:15:07.185Z,21.80
2018-11-04T06:17:35.249Z,21.50
2018-11-04T06:20:03.312Z,22.90
2018-11-04T06:22:31.564Z,22.33
2018-11-04T06:24:59.617Z,21.80
2018-11-04T06:27:27.665Z,23.33
2018-11-04T06:29:56.749Z,22.83
2018-11-04T06:32:24.742Z,24.57
2018-11-04T06:34:52.722Z,25.70
2018-11-04T06:37:20.869Z,24.97
2018-11-04T06:39:49.107Z,24.47
2018-11-04T06:42:17.280Z,24.03
2018-11-04T06:44:45.294Z,23.70
2018-11-04T06:47:13.503Z,23.57
2018-11-04T06:49:41.440Z,24.13
2018-11-04T06:52:09.548Z,23.27
2018-11-04T06:54:37.578Z,23.53
2018-11-04T06:57:05.708Z,22.13
2018-11-04T06:59:33.809Z,24.50
2018-11-04T07:02:01.889Z,22.67
2018-11-04T07:04:30.059Z,22.50
2018-11-04T07:06:58.938Z,23.20
2018-11-04T07:09:27.023Z,22.73
2018-11-04T07:11:55.153Z,23.33
2018-11-04T07:14:23.173Z,24.77
2018-11-04T07:16:51.229Z,24.90
2018-11-04T07:19:19.218Z,25.73
2018-11-04T07:21:47.259Z,26.30
2018-11-04T07:24:15.253Z,26.30
2018-11-04T07:26:43.324Z,26.30
2018-11-04T07:29:11.348Z,25.17
2018-11-04T07:31:39.390Z,26.47
2018-11-04T07:34:07.679Z,25.73
2018-11-04T07:36:35.758Z,25.13
2018-11-04T07:39:06.243Z,25.30
2018-11-04T07:41:34.309Z,26.43
2018-11-04T07:44:02.403Z,24.73
2018-11-04T07:46:30.499Z,24.43
2018-11-04T07:48:58.493Z,25.00
2018-11-04T07:51:26.556Z,24.83
2018-11-04T07:53:54.820Z,25.77
2018-11-04T07:56:23.556Z,24.33
2018-11-04T07:58:51.613Z,26.10
2018-11-04T08:01:19.853Z,25.70
2018-11-04T08:03:48.001Z,25.60
2018-11-04T08:06:16.125Z,26.03
2018-11-04T08:08:44.224Z,29.00
2018-11-04T08:11:12.515Z,28.43
2018-11-04T08:13:41.677Z,27.47
2018-11-04T08:16:09.951Z,25.83
2018-11-04T08:18:38.819Z,25.03
2018-11-04T08:21:07.020Z,25.93
2018-11-04T08:23:35.141Z,25.70
2018-11-04T08:26:03.235Z,43.23
2018-11-04T08:28:31.317Z,29.80
2018-11-04T08:31:00.409Z,34.70
2018-11-04T08:33:29.061Z,24.93
2018-11-04T08:35:56.995Z,25.03
2018-11-04T08:38:25.170Z,25.93
2018-11-04T08:40:53.241Z,28.17
2018-11-04T08:43:21.315Z,34.13
2018-11-04T08:45:49.447Z,32.97
2018-11-04T08:48:17.461Z,30.23
2018-11-04T08:50:45.439Z,26.73
2018-11-04T08:53:13.556Z,26.27
2018-11-04T08:55:41.571Z,26.60
2018-11-04T08:58:09.604Z,26.77
2018-11-04T09:00:37.710Z,26.23
2018-11-04T09:03:05.840Z,28.40
2018-11-04T09:05:33.805Z,28.13
2018-11-04T09:08:01.818Z,28.27
2018-11-04T09:10:29.755Z,30.70
2018-11-04T09:12:57.785Z,32.10
2018-11-04T09:15:25.801Z,30.93
2018-11-04T09:17:53.910Z,31.93
2018-11-04T09:20:21.987Z,31.83
2018-11-04T09:22:50.185Z,32.93
2018-11-04T09:25:18.241Z,33.63
2018-11-04T09:27:46.344Z,32.33
2018-11-04T09:30:16.106Z,33.20
2018-11-04T09:32:44.126Z,32.80
2018-11-04T09:35:12.542Z,34.77
2018-11-04T09:37:40.704Z,35.07
2018-11-04T09:40:10.256Z,34.60
2018-11-04T09:42:38.308Z,37.17
2018-11-04T09:45:07.347Z,35.53
2018-11-04T09:47:35.629Z,34.43
2018-11-04T09:50:04.091Z,34.60
2018-11-04T09:52:32.104Z,35.07
2018-11-04T09:55:00.769Z,35.63
2018-11-04T09:57:28.769Z,34.53
2018-11-04T09:59:56.816Z,33.27
2018-11-04T10:02:24.813Z,33.23
2018-11-04T10:04:52.825Z,34.10
2018-11-04T10:07:20.846Z,35.83
2018-11-04T10:09:49.108Z,34.57
2018-11-04T10:12:17.229Z,34.67
2018-11-04T10:14:45.213Z,33.17
2018-11-04T10:17:13.299Z,31.37
2018-11-04T10:19:41.389Z,31.70
2018-11-04T10:22:09.536Z,32.87
2018-11-04T10:24:37.553Z,31.53
2018-11-04T10:27:05.684Z,33.13
2018-11-04T10:29:33.808Z,32.83
2018-11-04T10:32:02.000Z,31.27
2018-11-04T10:34:30.047Z,30.37
2018-11-04T10:36:58.083Z,32.97
2018-11-04T10:39:26.361Z,30.33
2018-11-04T10:41:54.519Z,32.07
2018-11-04T10:44:22.616Z,29.20
2018-11-04T10:46:50.600Z,30.70
2018-11-04T10:49:18.743Z,29.70
2018-11-04T10:51:46.826Z,30.20
2018-11-04T10:54:14.945Z,30.93
2018-11-04T10:56:42.934Z,31.30
2018-11-04T10:59:10.990Z,31.30
2018-11-04T11:01:39.020Z,30.30
2018-11-04T11:04:07.054Z,31.50
2018-11-04T11:06:35.141Z,31.70
2018-11-04T11:09:04.226Z,30.47
2018-11-04T11:11:32.228Z,30.00
2018-11-04T11:14:00.231Z,31.40
2018-11-04T11:16:28.183Z,29.63
2018-11-04T11:18:56.203Z,32.80
2018-11-04T11:21:24.209Z,32.10
2018-11-04T11:23:52.184Z,30.93
2018-11-04T11:26:20.221Z,30.37
2018-11-04T11:28:48.294Z,32.00
2018-11-04T11:31:16.627Z,30.50
2018-11-04T11:33:44.637Z,30.40
2018-11-04T11:36:12.629Z,29.03
2018-11-04T11:38:40.769Z,30.07
2018-11-04T11:41:08.707Z,29.27
2018-11-04T11:43:36.745Z,28.20
2018-11-04T11:46:04.988Z,28.70
2018-11-04T11:48:33.115Z,28.17
2018-11-04T11:51:01.130Z,27.73
2018-11-04T11:53:29.292Z,29.50
2018-11-04T11:55:57.313Z,30.03
2018-11-04T11:58:25.272Z,29.83
2018-11-04T12:00:53.337Z,28.00
2018-11-04T12:03:21.271Z,28.00
2018-11-04T12:05:49.316Z,29.83
2018-11-04T12:08:17.280Z,27.37
2018-11-04T12:10:45.349Z,28.70
2018-11-04T12:13:13.305Z,27.40
2018-11-04T12:15:41.374Z,27.60
2018-11-04T12:18:09.333Z,29.27
2018-11-04T12:20:37.506Z,27.00
2018-11-04T12:23:05.554Z,28.27
2018-11-04T12:25:33.643Z,27.00
2018-11-04T12:28:01.718Z,28.90
2018-11-04T12:30:29.840Z,26.67
2018-11-04T12:32:57.852Z,25.93
2018-11-04T12:35:25.969Z,27.03
2018-11-04T12:37:54.034Z,27.93
2018-11-04T12:40:22.177Z,27.77
2018-11-04T12:42:50.222Z,28.33
2018-11-04T12:45:18.395Z,27.27
2018-11-04T12:47:46.364Z,26.70
2018-11-04T12:50:14.423Z,26.37
2018-11-04T12:52:42.397Z,26.30
2018-11-04T12:55:10.528Z,26.50
2018-11-04T12:57:38.537Z,27.50
2018-11-04T13:00:09.699Z,26.40
2018-11-04T13:02:38.020Z,27.37
2018-11-04T13:05:08.238Z,26.23
2018-11-04T13:07:36.539Z,25.20
2018-11-04T13:10:07.113Z,24.70
2018-11-04T13:12:35.290Z,22.77
2018-11-04T13:15:03.753Z,22.40
2018-11-04T13:17:31.991Z,21.07
2018-11-04T13:20:00.196Z,21.20
2018-11-04T13:22:28.173Z,21.03
2018-11-04T13:24:56.583Z,21.90
2018-11-04T13:27:24.665Z,23.40
2018-11-04T13:29:52.863Z,23.37
2018-11-04T13:32:21.097Z,22.70
2018-11-04T13:34:49.364Z,23.10
2018-11-04T13:37:17.626Z,20.47
2018-11-04T13:39:45.733Z,19.60
2018-11-04T13:42:13.761Z,19.37
2018-11-04T13:44:42.072Z,23.07
2018-11-04T13:47:10.224Z,23.10
2018-11-04T13:49:38.508Z,21.67
2018-11-04T13:52:06.784Z,20.87
2018-11-04T13:54:35.052Z,19.97
2018-11-04T13:57:03.832Z,19.77
2018-11-04T13:59:31.964Z,20.47
2018-11-04T14:02:00.325Z,17.93
2018-11-04T14:04:28.567Z,18.20
2018-11-04T14:06:58.284Z,18.30
2018-11-04T14:09:27.224Z,18.20
2018-11-04T14:11:56.516Z,16.97
2018-11-04T14:14:24.726Z,16.47
2018-11-04T14:16:53.064Z,14.87
2018-11-04T14:19:21.884Z,16.13
2018-11-04T14:21:50.284Z,15.97
2018-11-04T14:24:18.405Z,15.80
2018-11-04T14:26:46.744Z,15.97
2018-11-04T14:29:14.924Z,16.27
2018-11-04T14:31:42.953Z,15.17
2018-11-04T14:34:10.928Z,15.13
2018-11-04T14:36:39.101Z,14.80
2018-11-04T14:39:08.495Z,14.57
2018-11-04T14:41:36.496Z,14.60
2018-11-04T14:44:04.956Z,13.10
2018-11-04T14:46:33.736Z,14.47
2018-11-04T14:49:01.971Z,17.70
2018-11-04T14:51:34.806Z,19.73
2018-11-04T14:54:04.383Z,21.00
2018-11-04T14:56:32.801Z,21.87
2018-11-04T14:59:01.012Z,21.67
2018-11-04T15:01:29.333Z,21.87
2018-11-04T15:03:58.013Z,20.63
2018-11-04T15:06:26.956Z,23.77
2018-11-04T15:08:55.201Z,21.90
2018-11-04T15:11:24.688Z,22.90
2018-11-04T15:13:54.390Z,23.30
2018-11-04T15:16:25.027Z,23.90
2018-11-04T15:18:53.262Z,22.80
2018-11-04T15:21:21.493Z,22.03
2018-11-04T15:23:49.673Z,16.73
2018-11-04T15:26:17.866Z,16.70
2018-11-04T15:28:46.213Z,15.60
2018-11-04T15:31:14.325Z,16.67
2018-11-04T15:33:42.305Z,13.97
2018-11-04T15:36:10.340Z,16.27
2018-11-04T15:38:38.410Z,16.17
2018-11-04T15:41:06.489Z,16.73
2018-11-04T15:43:34.556Z,17.10
2018-11-04T15:46:02.621Z,16.53
2018-11-04T15:48:30.711Z,20.70
2018-11-04T15:50:58.721Z,19.17
2018-11-04T15:53:26.786Z,15.43
2018-11-04T15:55:54.816Z,17.77
2018-11-04T15:58:22.884Z,18.93
2018-11-04T16:00:50.920Z,17.50
2018-11-04T16:03:18.947Z,17.53
2018-11-04T16:05:47.006Z,16.90
2018-11-04T16:08:15.074Z,14.33
2018-11-04T16:10:43.185Z,15.47
2018-11-04T16:13:11.312Z,14.53
2018-11-04T16:15:39.330Z,10.57
2018-11-04T16:18:07.427Z,7.83
2018-11-04T16:20:35.391Z,6.40
2018-11-04T16:23:03.456Z,6.53
2018-11-04T16:25:31.595Z,6.20
2018-11-04T16:27:59.650Z,6.00
2018-11-04T16:30:27.964Z,5.97
2018-11-04T16:32:55.986Z,6.50
2018-11-04T16:35:24.189Z,6.53
2018-11-04T16:37:52.418Z,6.33
2018-11-04T16:40:20.485Z,7.53
2018-11-04T16:42:48.575Z,7.73
2018-11-04T16:45:16.799Z,8.43
2018-11-04T16:47:44.944Z,11.27
2018-11-04T16:50:13.739Z,13.53
2018-11-04T16:52:42.606Z,13.10
2018-11-04T16:55:11.305Z,11.27
2018-11-04T16:57:39.391Z,11.93
2018-11-04T17:00:09.009Z,10.53
2018-11-04T17:02:37.716Z,10.03
2018-11-04T17:05:06.746Z,12.07
2018-11-04T17:07:34.845Z,12.50
2018-11-04T17:10:03.101Z,13.50
2018-11-04T17:12:31.173Z,14.93
2018-11-04T17:14:59.302Z,16.77
2018-11-04T17:17:27.545Z,15.67
2018-11-04T17:19:55.761Z,16.53
2018-11-04T17:22:23.891Z,17.53
2018-11-04T17:24:52.388Z,17.30
2018-11-04T17:27:20.528Z,15.87
2018-11-04T17:29:48.706Z,16.63
2018-11-04T17:32:16.700Z,15.70
2018-11-04T17:34:44.923Z,13.40
2018-11-04T17:37:13.227Z,12.87
2018-11-04T17:39:41.518Z,11.20
2018-11-04T17:42:09.898Z,10.90
2018-11-04T17:44:38.179Z,10.47
2018-11-04T17:47:06.568Z,8.97
2018-11-04T17:49:34.888Z,9.93
2018-11-04T17:52:03.277Z,9.47
2018-11-04T17:54:31.746Z,9.03
2018-11-04T17:57:00.366Z,9.27
2018-11-04T17:59:28.922Z,10.43
2018-11-04T18:01:57.345Z,12.40
2018-11-04T18:04:25.988Z,12.97
2018-11-04T18:06:54.549Z,13.30
2018-11-04T18:09:23.031Z,14.17
2018-11-04T18:11:51.357Z,14.03
2018-11-04T18:14:19.867Z,16.13
2018-11-04T18:16:48.328Z,14.93
2018-11-04T18:19:16.619Z,14.87
2018-11-04T18:21:45.038Z,14.67
2018-11-04T18:24:13.415Z,14.10
2018-11-04T18:26:42.006Z,12.37
2018-11-04T18:29:10.793Z,12.77
2018-11-04T18:31:39.356Z,12.13
2018-11-04T18:34:07.856Z,11.27
2018-11-04T18:36:36.397Z,11.07
2018-11-04T18:39:06.556Z,10.73
2018-11-04T18:41:35.097Z,10.40
2018-11-04T18:44:03.571Z,9.83
2018-11-04T18:46:32.193Z,10.13
2018-11-04T18:49:00.642Z,9.97
2018-11-04T18:51:29.094Z,9.43
2018-11-04T18:53:57.493Z,9.10
2018-11-04T18:56:25.981Z,8.67
2018-11-04T18:58:54.843Z,9.23
2018-11-04T19:01:23.488Z,8.97
2018-11-04T19:03:51.980Z,10.63
2018-11-04T19:06:20.528Z,9.27
2018-11-04T19:08:49.042Z,10.17
2018-11-04T19:11:17.694Z,9.97
2018-11-04T19:13:46.017Z,9.63
2018-11-04T19:16:14.697Z,9.53
2018-11-04T19:18:43.347Z,9.23
2018-11-04T19:21:11.957Z,9.40
2018-11-04T19:23:40.486Z,9.73
2018-11-04T19:26:09.173Z,9.27
2018-11-04T19:28:37.877Z,9.50
2018-11-04T19:31:06.595Z,9.50
2018-11-04T19:33:35.115Z,9.57
2018-11-04T19:36:03.769Z,10.17
2018-11-04T19:38:33.366Z,10.77
2018-11-04T19:41:01.969Z,8.77
2018-11-04T19:43:30.337Z,9.73
2018-11-04T19:45:58.903Z,9.47
2018-11-04T19:48:27.505Z,11.53
2018-11-04T19:50:56.000Z,9.13
2018-11-04T19:53:24.457Z,10.17
2018-11-04T19:55:52.884Z,10.37
2018-11-04T19:58:21.525Z,11.27
2018-11-04T20:00:49.990Z,9.10
2018-11-04T20:03:18.486Z,10.37
2018-11-04T20:05:46.974Z,9.80
2018-11-04T20:08:15.485Z,10.27
2018-11-04T20:10:43.972Z,10.00
2018-11-04T20:13:17.584Z,9.73
2018-11-04T20:15:46.119Z,9.87
2018-11-04T20:18:19.996Z,10.23
2018-11-04T20:20:48.444Z,10.23
2018-11-04T20:23:16.776Z,9.37
2018-11-04T20:25:50.631Z,10.40
2018-11-04T20:28:18.976Z,9.40
2018-11-04T20:30:47.401Z,9.73
2018-11-04T20:33:16.341Z,10.17
2018-11-04T20:35:44.728Z,10.03
2018-11-04T20:38:13.152Z,9.90
2018-11-04T20:40:46.944Z,10.40
2018-11-04T20:43:15.190Z,10.60
2018-11-04T20:45:43.599Z,9.93
2018-11-04T20:48:17.284Z,9.77
2018-11-04T20:50:51.006Z,10.00
2018-11-04T20:53:19.374Z,10.90
2018-11-04T20:55:52.994Z,10.90
2018-11-04T20:58:21.554Z,10.47
2018-11-04T21:00:49.874Z,10.40
2018-11-04T21:03:18.070Z,10.70
2018-11-04T21:05:46.272Z,11.27
2018-11-04T21:08:14.345Z,10.40
2018-11-04T21:10:42.559Z,10.87
2018-11-04T21:13:10.709Z,10.97
2018-11-04T21:15:38.788Z,11.33
2018-11-04T21:18:07.131Z,11.07
2018-11-04T21:20:35.304Z,11.17
2018-11-04T21:23:03.620Z,10.70
2018-11-04T21:25:32.108Z,10.73
2018-11-04T21:28:00.281Z,11.00
2018-11-04T21:30:28.368Z,11.20
2018-11-04T21:32:56.491Z,10.53
2018-11-04T21:35:24.947Z,12.03
2018-11-04T21:37:53.470Z,10.90
2018-11-04T21:40:21.664Z,11.67
2018-11-04T21:42:50.020Z,10.47
2018-11-04T21:45:18.169Z,9.93
2018-11-04T21:47:46.449Z,11.37
2018-11-04T21:50:14.760Z,10.03
2018-11-04T21:52:42.920Z,10.70
2018-11-04T21:55:12.552Z,11.67
2018-11-04T21:57:41.822Z,10.80
2018-11-04T22:00:12.235Z,12.07
2018-11-04T22:02:40.502Z,10.67
2018-11-04T22:05:09.402Z,11.73
2018-11-04T22:07:37.701Z,11.07
2018-11-04T22:10:08.314Z,10.90
2018-11-04T22:12:36.329Z,11.40
2018-11-04T22:15:04.714Z,12.03
2018-11-04T22:17:32.764Z,11.00
2018-11-04T22:20:00.779Z,10.97
2018-11-04T22:22:28.874Z,11.50
2018-11-04T22:24:56.949Z,12.67
2018-11-04T22:27:25.024Z,12.27
2018-11-04T22:29:53.069Z,12.13
2018-11-04T22:32:21.078Z,11.53
2018-11-04T22:34:49.178Z,12.70
2018-11-04T22:37:17.760Z,12.87
2018-11-04T22:39:45.740Z,12.87
2018-11-04T22:42:14.062Z,12.30
2018-11-04T22:44:42.071Z,13.17
2018-11-04T22:47:10.119Z,12.23
2018-11-04T22:49:38.048Z,12.50
2018-11-04T22:52:06.139Z,12.03
2018-11-04T22:54:34.087Z,12.67
2018-11-04T22:57:02.222Z,13.20
2018-11-04T22:59:30.322Z,13.23
2018-11-04T23:01:58.400Z,12.07
2018-11-04T23:04:31.799Z,12.33
2018-11-04T23:06:59.808Z,13.13
2018-11-04T23:09:27.956Z,13.03
2018-11-04T23:11:56.043Z,14.03
2018-11-04T23:14:24.185Z,13.63
2018-11-04T23:16:52.102Z,14.63
2018-11-04T23:19:20.128Z,14.47
2018-11-04T23:21:48.212Z,13.87
2018-11-04T23:24:16.161Z,13.63
2018-11-04T23:26:44.200Z,13.70
2018-11-04T23:29:12.184Z,14.93
2018-11-04T23:31:40.237Z,14.73
2018-11-04T23:34:08.172Z,14.13
2018-11-04T23:36:36.262Z,14.73
2018-11-04T23:39:05.721Z,14.80
2018-11-04T23:41:34.913Z,14.17
2018-11-04T23:44:02.937Z,14.67
2018-11-04T23:46:30.961Z,14.97
2018-11-04T23:48:58.961Z,13.73
2018-11-04T23:51:26.997Z,14.70
2018-11-04T23:53:55.017Z,14.70
2018-11-04T23:56:23.021Z,14.90
2018-11-04T23:58:51.014Z,14.10
